Agua Caliente, California
Current Conditions -  °F | °C
As of 8:30 AM on Friday 31 Oct 2014 (Local Time) from KO69 Reporting Station
Overcast Overcast  
Wind Chill: 59°   Ceiling: 2400
Heat Index: 59°   Visibility: 10mi
Dew Point: 57°   Wind: 3mph
Humidity: 94%   Direction: 110°ESE
Pressure: 29.87"   Gusts: NA
Location:  38.257°N, 122.459°W
Report Text: KO69 311530Z AUTO 11003KT 10SM SCT019 BKN024 OVC055 15/14 A2987 RMK AO1
Loading
Personal Weather Stations






























Interactive Weather Map New forecast layout! Learn more

10-Day Weather Forecast

Advertisements
Track Severe Weather on mobile